Airfield :
LOGIN :

Register | Disclaimer

   EN    FR    IT 

 










Legend :    VFR   Marginal VFR   IFR   Intensive IFR   Very Intensive IFR
Visi :
Ceiling :
>= 8 km
>= 3000ft
5 to 8 km
1000 to 3000 ft
1500m to 5 km
500 to 1000 ft
800 to 1500m
200 to 500 ft
< 800m
< 200 ft
Symbols :   Thunderstorms  Fog  Heavy snow  Heavy precipitations  Wind > 20 kt
SIGMETs :     Misc.  Thunderstorms  Icing  Turbulence  Mountain Waves  Volcanic Ashes







- Airport Elevation : 65 ft
- IATA code : PMO


LICJ - Palermo Punta Raisi

CURRENT METAR :
  • 230320Z 22005KT 200V270 CAVOK 28/20 Q1009

EXPIRED METARs :
  • 230250Z VRB02KT CAVOK 28/20 Q1009
  • 230220Z 26004KT 230V300 CAVOK 28/20 Q1009
  • 230150Z 25011KT CAVOK 30/19 Q1009
  • 230120Z 23017KT 9999 -RA NSC 32/16 Q1010
  • 230050Z 25019G30KT 210V280 9999 -RA NSC 32/17 Q1010

TAF TAF LICJ
Valid from the 23 at 00:00 until the 24 at 00:00 UTC


222300Z 2300/2324 VRB05KT 9999 FEW030
BECMG 2306/2308 32015G28KT
BECMG 2318/2321 VRB05KT
No reported NOTAMs for that airfield.
1 SIGMET reported for the Roma FIR (LIRR) :
 
Embedded thunderstorms
LIRR SIGMET 2 VALID 230200/230500 LIIB
LIRR ROMA FIR EMBD TS FCST WI N4022 E00800 - N4028 E01054 - N4209 E01344 - N4253 E01311 - N4333 E01317 - N4344 E01106 - N4333 E01021 - N4314 E00937 - N4119 E00944 - N4118 E00822 - N4100 E00757 - N4022 E00800 TOP FL390 STNR NC=



MET'MAP, your aeronautical weather chart ! - Copyright ORBIFLY December 2007 - Disclaimer

ORBIFLY MET'MAP TEAM :

Programming & Development : Alexandra Zaïnal
Concept & Development : Baudouin d'Aumeries
Co-Development & Prog : Marc-Olivier Méhu
Technical & hardware support : Manuel Goepfert

Contact : metmap@orbifly.com




SOURCES & CREDITS :

   NOAA